Time;durP1;ratioP1;P1;durP2;ratioP2;P2;SDS_P1;SDS_P2;PMS_P1;PMS_P2;Temp;Humidity;BMP_temperature;BMP_pressure;BME280_temperature;BME280_humidity;BME280_pressure;Samples;Min_cycle;Max_cycle;Signal;HPM_P1;HPM_P2
2022/01/25 00:27:52;;;;;;;42.53;16.02;;;;;;;;;;4950238;28;20051;-92
2022/01/25 00:30:45;;;;;;;58.88;17.52;;;;;;;;;;4953118;28;20053;-92
2022/01/25 00:33:17;;;;;;;50.20;16.23;;;;;;;;;;4952833;28;20058;-92
2022/01/25 00:35:55;;;;;;;41.40;16.55;;;;;;;;;;4951633;28;20039;-91
2022/01/25 00:38:29;;;;;;;42.55;15.95;;;;;;;;;;4956713;28;20065;-91
2022/01/25 00:44:06;;;;;;;45.03;15.82;;;;;;;;;;4950660;28;20053;-92
2022/01/25 00:46:52;;;;;;;38.95;15.00;;;;;;;;;;4946526;28;20472;-91
2022/01/25 00:49:40;;;;;;;39.33;16.08;;;;;;;;;;4942602;28;20067;-92
2022/01/25 00:53:52;;;;;;;40.88;15.20;;;;;;;;;;4955734;28;20066;-91
2022/01/25 00:55:30;;;;;;;41.17;15.15;;;;;;;;;;4954250;28;20058;-92
2022/01/25 00:58:17;;;;;;;33.10;13.55;;;;;;;;;;4951776;28;20059;-92
2022/01/25 01:04:15;;;;;;;38.88;15.23;;;;;;;;;;4951276;28;20054;-92
2022/01/25 01:10:44;;;;;;;34.97;13.40;;;;;;;;;;4952662;28;20051;-91
2022/01/25 01:16:48;;;;;;;;;;;;;;;;;;4952347;28;19930;-92
2022/01/25 01:59:48;;;;;;;39.50;14.90;;;;;;;;;;6251086;23;20031;-92
2022/01/25 02:02:15;;;;;;;36.92;14.40;;;;;;;;;;6250018;22;20365;-89
2022/01/25 02:04:42;;;;;;;45.50;14.57;;;;;;;;;;6249848;23;20960;-89
2022/01/25 02:07:09;;;;;;;57.22;14.52;;;;;;;;;;6250176;22;20432;-89
2022/01/25 02:09:36;;;;;;;44.65;15.18;;;;;;;;;;6250937;23;20024;-89
2022/01/25 02:12:06;;;;;;;101.18;15.90;;;;;;;;;;6249134;23;20085;-89
2022/01/25 02:14:36;;;;;;;42.10;15.30;;;;;;;;;;6250399;23;20024;-89
2022/01/25 02:17:10;;;;;;;80.75;16.70;;;;;;;;;;6250506;23;20027;-89
2022/01/25 02:22:33;;;;;;;59.83;15.82;;;;;;;;;;6250498;23;20031;-89
2022/01/25 02:25:01;;;;;;;48.63;16.33;;;;;;;;;;6249402;22;20031;-90
2022/01/25 02:27:28;;;;;;;53.85;15.95;;;;;;;;;;6249938;23;20356;-89
2022/01/25 02:29:55;;;;;;;64.65;16.27;;;;;;;;;;6249124;23;20086;-90
2022/01/25 02:32:22;;;;;;;55.72;16.10;;;;;;;;;;6250337;23;20024;-90
2022/01/25 02:34:49;;;;;;;39.15;15.90;;;;;;;;;;6249758;22;20020;-90
2022/01/25 02:37:17;;;;;;;84.72;16.33;;;;;;;;;;6250215;23;20461;-90
2022/01/25 02:39:46;;;;;;;101.95;18.20;;;;;;;;;;6249016;23;20453;-90
2022/01/25 02:42:19;;;;;;;35.72;13.82;;;;;;;;;;6249787;23;20077;-89
2022/01/25 02:44:48;;;;;;;47.65;14.57;;;;;;;;;;6248100;23;20619;-90
2022/01/25 02:50:00;;;;;;;37.30;14.32;;;;;;;;;;6250282;23;20408;-90
2022/01/25 02:52:27;;;;;;;34.53;13.38;;;;;;;;;;6248050;22;20024;-89
2022/01/25 02:54:56;;;;;;;44.78;13.30;;;;;;;;;;6242819;22;20027;-89
2022/01/25 02:57:24;;;;;;;49.17;13.90;;;;;;;;;;6242304;23;20016;-89
2022/01/25 02:59:51;;;;;;;60.65;15.55;;;;;;;;;;6243047;23;20350;-90
2022/01/25 03:02:24;;;;;;;43.20;13.50;;;;;;;;;;6242511;23;20016;-89
2022/01/25 03:04:51;;;;;;;35.60;13.90;;;;;;;;;;6242300;23;20074;-89
2022/01/25 03:07:18;;;;;;;36.88;13.73;;;;;;;;;;6243041;23;20596;-89
2022/01/25 03:09:46;;;;;;;38.63;13.77;;;;;;;;;;6242274;23;20401;-89
2022/01/25 03:12:18;;;;;;;35.35;11.25;;;;;;;;;;6216367;23;20031;-89
2022/01/25 03:15:00;;;;;;;40.00;12.82;;;;;;;;;;6242390;23;20016;-89
2022/01/25 03:17:31;;;;;;;29.90;11.38;;;;;;;;;;6243475;23;20119;-89
2022/01/25 03:20:17;;;;;;;31.95;13.05;;;;;;;;;;6243122;23;20024;-89
2022/01/25 03:22:57;;;;;;;34.10;12.73;;;;;;;;;;6243034;22;20039;-89
2022/01/25 03:25:25;;;;;;;39.55;13.27;;;;;;;;;;6241213;23;20020;-89
2022/01/25 03:27:55;;;;;;;36.40;13.38;;;;;;;;;;6243305;23;20075;-89
2022/01/25 03:30:29;;;;;;;43.38;12.43;;;;;;;;;;6243212;23;20035;-89
2022/01/25 03:32:57;;;;;;;65.38;13.55;;;;;;;;;;6243064;23;20477;-89
2022/01/25 03:35:24;;;;;;;32.72;12.30;;;;;;;;;;6242769;22;20024;-89
2022/01/25 03:37:51;;;;;;;94.70;16.98;;;;;;;;;;6242107;23;20020;-89
2022/01/25 03:40:21;;;;;;;36.10;14.82;;;;;;;;;;6241750;23;20023;-89
2022/01/25 03:42:48;;;;;;;48.75;12.55;;;;;;;;;;6242472;23;20024;-89
2022/01/25 03:45:21;;;;;;;36.63;11.75;;;;;;;;;;6241651;23;20406;-89
2022/01/25 03:47:58;;;;;;;42.15;12.63;;;;;;;;;;6242058;22;20024;-89
2022/01/25 03:50:25;;;;;;;38.70;12.48;;;;;;;;;;6243069;23;20095;-89
2022/01/25 03:52:54;;;;;;;34.25;11.38;;;;;;;;;;6242120;23;20507;-89
2022/01/25 03:55:24;;;;;;;37.50;13.00;;;;;;;;;;6241127;22;20066;-89
2022/01/25 03:58:00;;;;;;;33.10;11.93;;;;;;;;;;6242848;23;20012;-89
2022/01/25 04:00:28;;;;;;;43.95;12.55;;;;;;;;;;6242197;23;20023;-89
2022/01/25 04:03:01;;;;;;;44.88;13.10;;;;;;;;;;6242238;23;20071;-89
2022/01/25 04:05:36;;;;;;;33.78;10.57;;;;;;;;;;6241514;23;20098;-89
2022/01/25 04:08:04;;;;;;;37.47;12.40;;;;;;;;;;6243072;23;20020;-89
2022/01/25 04:10:31;;;;;;;28.60;11.45;;;;;;;;;;6242973;23;20016;-89
2022/01/25 04:12:58;;;;;;;55.92;13.13;;;;;;;;;;6242638;23;20012;-89
2022/01/25 04:15:25;;;;;;;34.88;12.50;;;;;;;;;;6242912;23;20024;-89
2022/01/25 04:18:19;;;;;;;31.92;12.05;;;;;;;;;;6242080;23;20031;-89
2022/01/25 04:20:57;;;;;;;35.35;12.82;;;;;;;;;;6241638;23;20016;-89
2022/01/25 04:26:11;;;;;;;35.85;13.27;;;;;;;;;;6241388;23;20102;-89
2022/01/25 04:28:38;;;;;;;44.45;13.50;;;;;;;;;;6241296;23;20012;-89
2022/01/25 04:31:05;;;;;;;36.10;11.35;;;;;;;;;;6241347;23;20058;-89
2022/01/25 04:33:42;;;;;;;42.70;13.00;;;;;;;;;;6241778;23;20098;-89
2022/01/25 04:36:27;;;;;;;32.72;12.52;;;;;;;;;;6241173;23;20020;-89
2022/01/25 04:53:57;;;;;;;83.55;15.13;;;;;;;;;;6100510;23;20139;-89
2022/01/25 05:07:03;;;;;;;27.38;10.48;;;;;;;;;;6055508;23;20127;-90
2022/01/25 05:13:38;;;;;;;27.77;10.52;;;;;;;;;;6028384;23;20044;-90
2022/01/25 05:16:11;;;;;;;33.58;13.18;;;;;;;;;;6042627;23;20417;-90
2022/01/25 05:18:43;;;;;;;28.35;11.55;;;;;;;;;;6062328;23;20413;-89
2022/01/25 05:23:54;;;;;;;45.55;13.38;;;;;;;;;;6062716;23;20095;-90
2022/01/25 05:26:31;;;;;;;37.05;14.77;;;;;;;;;;6073370;23;20022;-90
2022/01/25 05:29:01;;;;;;;35.60;13.90;;;;;;;;;;6120492;23;20475;-89
2022/01/25 05:31:37;;;;;;;31.27;12.55;;;;;;;;;;6120647;23;20025;-90
2022/01/25 05:34:18;;;;;;;30.55;12.32;;;;;;;;;;6119769;23;20081;-90
2022/01/25 05:36:45;;;;;;;32.83;11.35;;;;;;;;;;6095423;23;20022;-90
2022/01/25 05:39:16;;;;;;;45.13;12.93;;;;;;;;;;6119728;23;20054;-90
2022/01/25 05:41:46;;;;;;;41.60;12.98;;;;;;;;;;6238251;23;20028;-90
2022/01/25 05:44:23;;;;;;;32.60;11.95;;;;;;;;;;6241626;23;20055;-90
2022/01/25 05:47:07;;;;;;;39.63;13.25;;;;;;;;;;6242022;23;20406;-90
2022/01/25 05:49:36;;;;;;;29.35;11.20;;;;;;;;;;6242244;23;20066;-90
2022/01/25 05:52:07;;;;;;;31.98;13.48;;;;;;;;;;6242002;23;20035;-89
2022/01/25 05:54:34;;;;;;;49.80;18.63;;;;;;;;;;6240981;23;20020;-89
2022/01/25 05:57:02;;;;;;;34.63;14.77;;;;;;;;;;6240979;23;20020;-90
2022/01/25 05:59:28;;;;;;;44.55;16.80;;;;;;;;;;6242314;22;20043;-89
2022/01/25 06:01:56;;;;;;;49.92;18.27;;;;;;;;;;6271708;22;20020;-90
2022/01/25 06:04:24;;;;;;;39.53;16.60;;;;;;;;;;6272343;22;20016;-89
2022/01/25 06:06:51;;;;;;;36.85;16.25;;;;;;;;;;6272580;22;20020;-89
2022/01/25 06:09:18;;;;;;;32.20;13.52;;;;;;;;;;6273030;22;20030;-89
2022/01/25 06:11:45;;;;;;;41.95;16.00;;;;;;;;;;6272462;22;20077;-89
2022/01/25 06:14:13;;;;;;;36.45;14.38;;;;;;;;;;6271807;22;20011;-89
2022/01/25 06:16:40;;;;;;;33.85;12.48;;;;;;;;;;6272203;22;20018;-89
2022/01/25 06:19:07;;;;;;;33.50;12.57;;;;;;;;;;6271521;22;20019;-90
2022/01/25 06:21:34;;;;;;;28.20;11.15;;;;;;;;;;6272995;22;20020;-90
2022/01/25 06:24:01;;;;;;;36.40;13.07;;;;;;;;;;6271860;22;20057;-89
2022/01/25 06:26:28;;;;;;;36.22;13.07;;;;;;;;;;6271095;22;20026;-89
2022/01/25 06:28:55;;;;;;;37.17;14.23;;;;;;;;;;6273836;22;20020;-89
2022/01/25 06:31:46;;;;;;;37.65;14.20;;;;;;;;;;6274843;22;20392;-89
2022/01/25 06:37:26;;;;;;;32.50;12.75;;;;;;;;;;6233439;22;20031;-89
2022/01/25 06:39:57;;;;;;;37.35;13.82;;;;;;;;;;6242641;23;20023;-90
2022/01/25 06:42:38;;;;;;;35.53;12.65;;;;;;;;;;6243178;23;20457;-89
2022/01/25 06:45:39;;;;;;;38.53;14.23;;;;;;;;;;6244026;23;20024;-90
2022/01/25 06:53:38;;;;;;;38.88;16.02;;;;;;;;;;6263551;22;20333;-90
2022/01/25 06:56:06;;;;;;;37.25;14.45;;;;;;;;;;6273985;22;20048;-89
2022/01/25 06:58:33;;;;;;;35.67;14.23;;;;;;;;;;6274057;22;20015;-89
2022/01/25 07:06:40;;;;;;;33.63;13.45;;;;;;;;;;6272626;22;20449;-88
2022/01/25 07:09:09;;;;;;;37.55;14.05;;;;;;;;;;6249218;22;20020;-89
2022/01/25 07:11:49;;;;;;;46.53;16.40;;;;;;;;;;6274472;22;20090;-89
2022/01/25 07:14:22;;;;;;;32.80;13.38;;;;;;;;;;6273935;22;20532;-89
2022/01/25 07:16:51;;;;;;;41.67;15.35;;;;;;;;;;6245415;22;20030;-89
2022/01/25 07:19:19;;;;;;;39.67;15.13;;;;;;;;;;6274337;22;20023;-89
2022/01/25 07:21:56;;;;;;;43.08;15.77;;;;;;;;;;6274413;22;20015;-89
2022/01/25 07:24:24;;;;;;;39.55;15.90;;;;;;;;;;6273706;22;20070;-89
2022/01/25 07:26:51;;;;;;;40.25;16.20;;;;;;;;;;6273551;22;20019;-89
2022/01/25 07:29:18;;;;;;;40.95;17.25;;;;;;;;;;6275488;22;20468;-88
2022/01/25 07:31:49;;;;;;;42.03;16.70;;;;;;;;;;6274331;22;20073;-88
2022/01/25 07:34:16;;;;;;;46.15;19.08;;;;;;;;;;6246571;22;20022;-88
2022/01/25 07:36:43;;;;;;;41.03;14.80;;;;;;;;;;6273394;22;20598;-88
2022/01/25 07:39:12;;;;;;;35.30;15.27;;;;;;;;;;6272988;22;20887;-89
2022/01/25 07:41:41;;;;;;;44.42;17.20;;;;;;;;;;6274056;22;20031;-89
2022/01/25 07:44:08;;;;;;;45.20;16.13;;;;;;;;;;6273449;22;20042;-89
2022/01/25 07:50:38;;;;;;;42.53;16.90;;;;;;;;;;6214926;23;20551;-89
2022/01/25 07:53:05;;;;;;;37.05;15.43;;;;;;;;;;6209158;23;20509;-89
2022/01/25 07:55:33;;;;;;;39.72;16.17;;;;;;;;;;6209433;23;20499;-89
2022/01/25 07:57:59;;;;;;;44.40;17.27;;;;;;;;;;6209921;23;20017;-89
2022/01/25 08:00:26;;;;;;;44.05;18.45;;;;;;;;;;6209660;23;20020;-89
2022/01/25 08:02:54;;;;;;;40.83;16.73;;;;;;;;;;6209681;23;20017;-89
2022/01/25 08:05:25;;;;;;;41.90;17.25;;;;;;;;;;6209893;23;20025;-89
2022/01/25 08:08:00;;;;;;;41.55;17.02;;;;;;;;;;6208899;23;20103;-89
2022/01/25 08:10:27;;;;;;;45.00;18.40;;;;;;;;;;6210520;23;20051;-89
2022/01/25 08:12:56;;;;;;;38.53;17.58;;;;;;;;;;6210411;23;20342;-88
2022/01/25 08:15:25;;;;;;;44.92;17.05;;;;;;;;;;6209807;23;20024;-88
2022/01/25 08:17:52;;;;;;;49.03;19.20;;;;;;;;;;6209914;23;20511;-89
2022/01/25 08:20:19;;;;;;;46.72;17.77;;;;;;;;;;6209312;23;20087;-89
2022/01/25 08:22:45;;;;;;;43.55;18.05;;;;;;;;;;6209023;23;20553;-89
2022/01/25 08:25:13;;;;;;;40.60;16.63;;;;;;;;;;6207936;23;20020;-89
2022/01/25 08:27:40;;;;;;;39.30;16.27;;;;;;;;;;6265785;22;20073;-89
2022/01/25 08:30:10;;;;;;;43.67;17.00;;;;;;;;;;6269813;22;20026;-88
2022/01/25 08:32:48;;;;;;;43.55;17.05;;;;;;;;;;6272178;22;20019;-89
2022/01/25 08:35:22;;;;;;;39.78;19.33;;;;;;;;;;6272822;22;20028;-88
2022/01/25 08:37:54;;;;;;;35.67;15.23;;;;;;;;;;6272674;22;20039;-88
2022/01/25 08:40:21;;;;;;;42.33;17.58;;;;;;;;;;6271334;22;20452;-88
2022/01/25 08:42:48;;;;;;;35.33;15.65;;;;;;;;;;6270822;22;20020;-89
2022/01/25 08:45:20;;;;;;;37.22;16.70;;;;;;;;;;6271702;22;20077;-88
2022/01/25 08:47:47;;;;;;;37.17;16.60;;;;;;;;;;6272898;22;20024;-88
2022/01/25 08:50:22;;;;;;;42.67;17.67;;;;;;;;;;6273087;22;20020;-88
2022/01/25 08:52:49;;;;;;;35.20;17.50;;;;;;;;;;6273450;22;20020;-88
2022/01/25 08:55:16;;;;;;;38.30;16.05;;;;;;;;;;6273062;22;20020;-88
2022/01/25 08:57:43;;;;;;;37.78;16.80;;;;;;;;;;6273349;22;20082;-88
2022/01/25 09:00:12;;;;;;;40.65;16.77;;;;;;;;;;6273106;22;20020;-88
2022/01/25 09:02:41;;;;;;;37.03;15.55;;;;;;;;;;6272383;22;20099;-88
2022/01/25 09:05:09;;;;;;;39.92;17.98;;;;;;;;;;6271370;22;20024;-89
2022/01/25 09:10:25;;;;;;;37.95;17.38;;;;;;;;;;6272561;22;20035;-88
2022/01/25 09:12:52;;;;;;;42.73;19.53;;;;;;;;;;6272056;22;20039;-88
2022/01/25 09:15:20;;;;;;;41.90;19.77;;;;;;;;;;6272098;22;20024;-88
2022/01/25 09:17:49;;;;;;;38.90;16.92;;;;;;;;;;6271591;22;20039;-89
2022/01/25 09:20:16;;;;;;;36.70;16.60;;;;;;;;;;6272326;22;20674;-89
2022/01/25 09:22:43;;;;;;;35.97;16.23;;;;;;;;;;6272918;22;20445;-88
2022/01/25 09:25:12;;;;;;;44.05;18.13;;;;;;;;;;6269967;22;20035;-88
2022/01/25 09:27:41;;;;;;;40.55;18.95;;;;;;;;;;6272541;22;20026;-88
2022/01/25 09:30:09;;;;;;;36.90;16.83;;;;;;;;;;6272710;22;20449;-88
2022/01/25 09:32:36;;;;;;;37.88;18.88;;;;;;;;;;6271935;22;20527;-88
2022/01/25 09:35:06;;;;;;;39.60;17.88;;;;;;;;;;6270408;22;20020;-89
2022/01/25 09:37:33;;;;;;;36.70;16.40;;;;;;;;;;6272670;22;20028;-88
2022/01/25 09:40:06;;;;;;;37.35;16.83;;;;;;;;;;6273163;22;20449;-88
2022/01/25 09:42:32;;;;;;;43.88;19.52;;;;;;;;;;6272089;22;20024;-88
2022/01/25 09:44:59;;;;;;;35.22;17.25;;;;;;;;;;6272467;22;20016;-89
2022/01/25 09:47:28;;;;;;;43.00;19.00;;;;;;;;;;6272700;22;20031;-88
2022/01/25 09:50:00;;;;;;;37.88;17.77;;;;;;;;;;6271525;22;20030;-88
2022/01/25 09:52:41;;;;;;;37.53;16.77;;;;;;;;;;6272433;22;20023;-89
2022/01/25 09:55:10;;;;;;;37.38;17.10;;;;;;;;;;6270908;22;20019;-88
2022/01/25 09:57:37;;;;;;;36.95;16.40;;;;;;;;;;6272645;22;20070;-88
2022/01/25 10:00:10;;;;;;;38.85;17.85;;;;;;;;;;6272362;22;20540;-88
2022/01/25 10:02:44;;;;;;;34.00;17.50;;;;;;;;;;6271607;22;20023;-89
2022/01/25 10:05:23;;;;;;;37.80;15.73;;;;;;;;;;6272807;22;20353;-89
2022/01/25 10:08:14;;;;;;;37.97;17.40;;;;;;;;;;6273244;22;20027;-89
2022/01/25 10:10:46;;;;;;;37.95;17.88;;;;;;;;;;6245421;22;20027;-88
2022/01/25 10:13:21;;;;;;;34.60;16.20;;;;;;;;;;6271584;22;20077;-89
2022/01/25 10:16:02;;;;;;;34.60;16.48;;;;;;;;;;6271520;22;20026;-89
2022/01/25 10:26:10;;;;;;;41.05;17.08;;;;;;;;;;6241562;22;20027;-89
2022/01/25 10:28:42;;;;;;;35.17;15.07;;;;;;;;;;6242697;22;20020;-89
2022/01/25 10:34:32;;;;;;;38.22;16.42;;;;;;;;;;6239807;22;20455;-89
2022/01/25 10:37:00;;;;;;;35.72;15.77;;;;;;;;;;6239251;23;20074;-89
2022/01/25 10:39:55;;;;;;;39.10;16.67;;;;;;;;;;6240970;22;20012;-89
2022/01/25 10:42:50;;;;;;;38.63;17.92;;;;;;;;;;6241613;22;20020;-90
2022/01/25 10:45:19;;;;;;;39.67;17.42;;;;;;;;;;6240937;22;20012;-90
2022/01/25 10:51:13;;;;;;;37.67;17.83;;;;;;;;;;6241307;23;20361;-90
2022/01/25 10:53:48;;;;;;;36.58;17.48;;;;;;;;;;6244560;22;20382;-90
2022/01/25 10:56:18;;;;;;;39.50;17.00;;;;;;;;;;6241160;22;20376;-90
2022/01/25 10:58:48;;;;;;;41.30;19.33;;;;;;;;;;6241014;23;20446;-90
2022/01/25 11:04:23;;;;;;;39.50;17.35;;;;;;;;;;6206651;23;20017;-90
2022/01/25 11:07:17;;;;;;;43.60;19.55;;;;;;;;;;6207912;23;20043;-90
2022/01/25 11:16:05;;;;;;;41.42;17.05;;;;;;;;;;6204817;23;20020;-90
2022/01/25 11:19:12;;;;;;;39.08;17.52;;;;;;;;;;6206586;23;20020;-90
2022/01/25 11:46:01;;;;;;;39.45;16.73;;;;;;;;;;6271203;22;20035;-90
2022/01/25 11:48:48;;;;;;;37.40;16.83;;;;;;;;;;6271347;22;20026;-90
2022/01/25 11:51:41;;;;;;;43.35;16.10;;;;;;;;;;6273878;22;20360;-90
2022/01/25 11:54:40;;;;;;;40.45;16.92;;;;;;;;;;6243118;23;20024;-90
2022/01/25 11:57:23;;;;;;;39.67;16.02;;;;;;;;;;6241941;23;20024;-90
2022/01/25 12:15:57;;;;;;;42.45;18.17;;;;;;;;;;6241178;22;20030;-90
2022/01/25 12:19:07;;;;;;;43.88;17.77;;;;;;;;;;6239405;23;20040;-90
2022/01/25 12:22:01;;;;;;;44.92;19.17;;;;;;;;;;6239594;22;20020;-90
2022/01/25 12:24:35;;;;;;;47.25;19.52;;;;;;;;;;6239620;22;20094;-90
2022/01/25 12:27:26;;;;;;;45.40;16.83;;;;;;;;;;6241121;22;20027;-90
2022/01/25 12:45:26;;;;;;;47.83;18.20;;;;;;;;;;6142831;23;20398;-90
2022/01/25 12:48:01;;;;;;;45.97;20.13;;;;;;;;;;6147126;23;20025;-89
2022/01/25 12:53:40;;;;;;;54.97;19.67;;;;;;;;;;6145306;23;20030;-90
2022/01/25 13:06:33;;;;;;;46.85;17.80;;;;;;;;;;6029756;23;20038;-90
2022/01/25 13:20:07;;;;;;;47.70;19.60;;;;;;;;;;6142522;23;20678;-90
2022/01/25 13:25:58;;;;;;;42.90;18.52;;;;;;;;;;6146456;23;20098;-90
2022/01/25 13:28:53;;;;;;;41.10;17.98;;;;;;;;;;6146113;23;20435;-90
2022/01/25 15:02:45;;;;;;;43.90;18.70;;;;;;;;;;6241644;22;20016;-90
2022/01/25 15:09:23;;;;;;;41.72;18.65;;;;;;;;;;6269212;22;20070;-91
2022/01/25 15:15:54;;;;;;;46.33;19.85;;;;;;;;;;6223238;22;20027;-91
2022/01/25 16:31:18;;;;;;;46.40;20.67;;;;;;;;;;6270992;22;20024;-91
2022/01/25 16:39:54;;;;;;;43.63;19.17;;;;;;;;;;6266111;22;20081;-91
2022/01/25 16:48:50;;;;;;;51.25;20.35;;;;;;;;;;6267883;22;20034;-91
2022/01/25 16:58:24;;;;;;;47.78;19.33;;;;;;;;;;6240351;23;20109;-91
2022/01/25 17:07:33;;;;;;;52.13;19.77;;;;;;;;;;6115609;23;20072;-91
2022/01/25 17:10:21;;;;;;;50.70;20.83;;;;;;;;;;6116560;23;20068;-91
2022/01/25 17:13:00;;;;;;;49.42;21.27;;;;;;;;;;6072159;23;20030;-91
2022/01/25 17:19:56;;;;;;;44.65;18.42;;;;;;;;;;5955004;23;20390;-91
2022/01/25 17:26:26;;;;;;;;;;;;;;;;;;;;;
2022/01/25 19:07:10;;;;;;;48.45;20.17;;;;;;;;;;6301794;22;20094;-91
2022/01/25 19:21:55;;;;;;;45.97;17.83;;;;;;;;;;6149192;23;20470;-90
2022/01/25 20:13:18;;;;;;;57.75;23.00;;;;;;;;;;5900179;23;20064;-77
2022/01/25 21:43:55;;;;;;;81.85;23.30;;;;;;;;;;5782304;24;20049;-77
2022/01/25 21:50:44;;;;;;;84.80;22.63;;;;;;;;;;5869936;24;20037;-78
2022/01/25 21:57:09;;;;;;;74.70;22.60;;;;;;;;;;5815423;24;20136;-77
2022/01/25 22:26:54;;;;;;;56.15;18.77;;;;;;;;;;5856558;24;20040;-77
2022/01/25 22:30:08;;;;;;;44.03;18.88;;;;;;;;;;5896813;24;20053;-77
2022/01/25 22:49:54;;;;;;;49.22;17.98;;;;;;;;;;5971725;23;20107;-77
2022/01/25 23:48:45;;;;;;;50.45;19.38;;;;;;;;;;5895690;24;20065;-78
2022/01/25 23:54:01;;;;;;;;;;;;;;;;;;;;;
